Time;durP1;ratioP1;P1;durP2;ratioP2;P2;SDS_P1;SDS_P2;PMS_P1;PMS_P2;Temp;Humidity;BMP_temperature;BMP_pressure;BME280_temperature;BME280_humidity;BME280_pressure;Samples;Min_cycle;Max_cycle;Signal;HPM_P1;HPM_P2
2022/06/14 00:01:22;;;;;;;1.38;1.20;;;;;;;;;;5032188;28;20029;-38
2022/06/14 00:03:48;;;;;;;2.15;1.33;;;;;;;;;;5032133;28;20064;-38
2022/06/14 00:06:15;;;;;;;1.67;1.17;;;;;;;;;;5032356;28;20069;-38
2022/06/14 00:08:41;;;;;;;1.65;1.00;;;;;;;;;;5032197;28;20032;-38
2022/06/14 00:11:09;;;;;;;3.45;1.17;;;;;;;;;;5032000;28;20010;-38
2022/06/14 00:13:34;;;;;;;1.58;1.30;;;;;;;;;;5032012;28;20480;-38
2022/06/14 00:16:00;;;;;;;2.75;1.00;;;;;;;;;;5014348;28;20027;-38
2022/06/14 00:18:26;;;;;;;5.28;1.90;;;;;;;;;;5031992;28;20025;-38
2022/06/14 00:20:52;;;;;;;1.05;0.98;;;;;;;;;;5032094;28;20447;-38
2022/06/14 00:23:17;;;;;;;3.80;1.33;;;;;;;;;;5031936;28;20026;-39
2022/06/14 00:25:45;;;;;;;2.42;0.90;;;;;;;;;;5031846;28;20620;-38
2022/06/14 00:28:11;;;;;;;3.13;1.25;;;;;;;;;;5032059;28;20074;-39
2022/06/14 00:30:37;;;;;;;1.40;1.30;;;;;;;;;;5031765;28;20025;-38
2022/06/14 00:33:03;;;;;;;1.48;1.30;;;;;;;;;;5031935;28;20037;-38
2022/06/14 00:35:28;;;;;;;2.20;1.05;;;;;;;;;;5031619;28;20026;-38
2022/06/14 00:37:54;;;;;;;1.63;1.13;;;;;;;;;;5031597;28;20026;-38
2022/06/14 00:40:21;;;;;;;1.85;1.05;;;;;;;;;;5031738;28;20064;-39
2022/06/14 00:42:46;;;;;;;1.23;1.08;;;;;;;;;;5031822;28;20023;-39
2022/06/14 00:45:11;;;;;;;1.35;1.02;;;;;;;;;;5031432;28;20047;-38
2022/06/14 00:47:40;;;;;;;5.32;1.17;;;;;;;;;;5031828;28;20049;-38
2022/06/14 00:50:10;;;;;;;1.52;0.93;;;;;;;;;;5031355;28;20021;-38
2022/06/14 00:52:43;;;;;;;1.13;0.90;;;;;;;;;;5031792;28;20037;-38
2022/06/14 00:55:11;;;;;;;1.88;0.98;;;;;;;;;;5031334;28;20051;-38
2022/06/14 00:57:42;;;;;;;2.58;0.90;;;;;;;;;;5031443;28;20018;-38
2022/06/14 01:00:13;;;;;;;3.47;1.30;;;;;;;;;;5031180;28;20143;-38
2022/06/14 01:02:42;;;;;;;2.15;1.30;;;;;;;;;;5031354;28;20052;-38
2022/06/14 01:05:10;;;;;;;1.15;1.02;;;;;;;;;;5031116;28;20069;-38
2022/06/14 01:07:38;;;;;;;1.77;1.00;;;;;;;;;;5031259;28;20534;-38
2022/06/14 01:10:06;;;;;;;0.75;0.75;;;;;;;;;;5031279;28;20022;-38
2022/06/14 01:12:34;;;;;;;2.03;1.00;;;;;;;;;;5031159;28;20026;-38
2022/06/14 01:15:04;;;;;;;1.67;1.52;;;;;;;;;;5031236;28;20040;-38
2022/06/14 01:17:31;;;;;;;2.17;1.20;;;;;;;;;;5031149;28;20037;-38
2022/06/14 01:19:58;;;;;;;2.17;1.15;;;;;;;;;;5031143;28;20045;-38
2022/06/14 01:22:24;;;;;;;1.17;0.93;;;;;;;;;;5031095;28;20013;-38
2022/06/14 01:24:50;;;;;;;3.15;1.10;;;;;;;;;;5031403;28;20043;-38
2022/06/14 01:27:17;;;;;;;2.13;0.95;;;;;;;;;;5030988;28;20021;-38
2022/06/14 01:29:46;;;;;;;2.05;1.13;;;;;;;;;;5031304;28;20369;-39
2022/06/14 01:32:13;;;;;;;2.15;1.17;;;;;;;;;;5031264;28;20550;-38
2022/06/14 01:34:45;;;;;;;3.13;1.05;;;;;;;;;;5031373;28;20033;-38
2022/06/14 01:37:10;;;;;;;2.05;1.05;;;;;;;;;;5030977;28;20389;-38
2022/06/14 01:39:37;;;;;;;3.05;1.10;;;;;;;;;;5030904;28;20040;-39
2022/06/14 01:42:11;;;;;;;1.98;1.40;;;;;;;;;;5030949;28;20404;-38
2022/06/14 01:44:52;;;;;;;1.38;0.82;;;;;;;;;;5031201;28;20112;-38
2022/06/14 01:47:25;;;;;;;1.38;1.25;;;;;;;;;;5013191;28;20082;-38
2022/06/14 01:52:46;;;;;;;4.05;0.88;;;;;;;;;;5030962;28;20099;-38
2022/06/14 01:55:11;;;;;;;1.83;0.90;;;;;;;;;;5030982;28;20029;-38
2022/06/14 01:57:40;;;;;;;2.45;1.00;;;;;;;;;;5030770;28;20029;-39
2022/06/14 02:00:23;;;;;;;1.30;1.20;;;;;;;;;;5012862;28;20484;-38
2022/06/14 02:06:24;;;;;;;3.72;2.00;;;;;;;;;;4982749;28;20049;-38
2022/06/14 02:09:08;;;;;;;2.88;1.50;;;;;;;;;;5022545;28;20115;-38
2022/06/14 02:11:33;;;;;;;;;;;;;;;;;;5031242;28;20580;-38
2022/06/14 02:14:17;;;;;;;2.40;1.30;;;;;;;;;;5030718;28;20003;-38
2022/06/14 02:17:00;;;;;;;1.60;1.23;;;;;;;;;;5030750;28;20026;-38
2022/06/14 02:19:45;;;;;;;3.00;1.50;;;;;;;;;;5030545;28;20136;-38
2022/06/14 02:22:13;;;;;;;1.45;1.30;;;;;;;;;;5032211;28;20037;-38
2022/06/14 02:24:43;;;;;;;1.40;1.30;;;;;;;;;;5034471;28;20104;-38
2022/06/14 02:27:09;;;;;;;2.45;1.40;;;;;;;;;;5034010;28;20030;-38
2022/06/14 02:29:43;;;;;;;1.40;1.17;;;;;;;;;;5033938;28;20017;-38
2022/06/14 02:32:13;;;;;;;1.15;1.05;;;;;;;;;;5034072;28;20080;-38
2022/06/14 02:34:43;;;;;;;1.52;1.20;;;;;;;;;;5033954;28;20120;-38
2022/06/14 02:37:10;;;;;;;1.58;1.27;;;;;;;;;;5033812;28;20032;-38
2022/06/14 02:39:56;;;;;;;1.75;1.45;;;;;;;;;;5015953;28;20455;-38
2022/06/14 02:42:27;;;;;;;2.33;1.75;;;;;;;;;;5015940;28;20052;-38
2022/06/14 02:45:02;;;;;;;2.00;1.15;;;;;;;;;;5033829;28;20395;-38
2022/06/14 02:47:48;;;;;;;1.60;1.27;;;;;;;;;;5033707;28;20033;-38
2022/06/14 02:50:19;;;;;;;3.28;1.10;;;;;;;;;;5033224;28;20077;-38
2022/06/14 02:52:49;;;;;;;1.90;1.42;;;;;;;;;;5033926;28;20610;-38
2022/06/14 02:55:21;;;;;;;1.40;1.20;;;;;;;;;;5033795;28;20443;-38
2022/06/14 02:57:55;;;;;;;2.30;1.20;;;;;;;;;;5033613;28;20041;-38
2022/06/14 03:00:34;;;;;;;1.50;1.27;;;;;;;;;;5033382;28;20881;-38
2022/06/14 03:03:09;;;;;;;3.70;1.10;;;;;;;;;;5033455;28;20029;-38
2022/06/14 03:05:57;;;;;;;4.03;1.33;;;;;;;;;;5033233;28;20136;-38
2022/06/14 03:08:25;;;;;;;2.20;1.42;;;;;;;;;;5025023;28;20037;-39
2022/06/14 03:11:01;;;;;;;3.75;1.10;;;;;;;;;;5033221;28;20060;-38
2022/06/14 03:13:37;;;;;;;3.72;1.40;;;;;;;;;;5033303;28;20499;-38
2022/06/14 03:16:02;;;;;;;1.48;1.38;;;;;;;;;;5033141;28;20044;-38
2022/06/14 03:18:36;;;;;;;3.97;1.38;;;;;;;;;;5033375;28;20017;-38
2022/06/14 03:21:11;;;;;;;2.83;1.13;;;;;;;;;;5032990;28;20484;-38
2022/06/14 03:23:39;;;;;;;3.15;1.35;;;;;;;;;;5032982;28;20025;-38
2022/06/14 03:26:22;;;;;;;2.65;1.08;;;;;;;;;;5032988;28;20049;-38
2022/06/14 03:28:48;;;;;;;;;;;;;;;;;;5015724;28;20038;-38
2022/06/14 03:31:13;;;;;;;2.15;1.52;;;;;;;;;;5033073;28;19962;-38
2022/06/14 03:33:38;;;;;;;1.55;0.90;;;;;;;;;;5031738;28;20037;-39
2022/06/14 03:36:05;;;;;;;2.60;1.20;;;;;;;;;;5032803;28;20017;-39
2022/06/14 03:38:35;;;;;;;1.50;1.02;;;;;;;;;;5015063;28;20057;-38
2022/06/14 03:41:01;;;;;;;3.33;1.17;;;;;;;;;;5014977;28;20041;-38
2022/06/14 03:43:27;;;;;;;1.73;1.30;;;;;;;;;;5032667;28;20472;-38
2022/06/14 03:46:11;;;;;;;2.15;1.05;;;;;;;;;;5032860;28;20040;-38
2022/06/14 03:48:38;;;;;;;2.15;1.35;;;;;;;;;;5032546;28;20034;-39
2022/06/14 03:51:03;;;;;;;1.75;1.40;;;;;;;;;;5032477;28;20105;-38
2022/06/14 03:53:31;;;;;;;1.17;1.08;;;;;;;;;;5032807;28;20109;-38
2022/06/14 03:55:57;;;;;;;2.65;1.20;;;;;;;;;;5032491;28;20025;-38
2022/06/14 03:58:31;;;;;;;1.48;1.33;;;;;;;;;;5032279;28;20037;-38
2022/06/14 04:01:06;;;;;;;1.38;1.13;;;;;;;;;;5032254;28;20033;-39
2022/06/14 04:03:50;;;;;;;1.23;1.13;;;;;;;;;;5032164;28;20052;-38
2022/06/14 04:06:18;;;;;;;4.57;1.42;;;;;;;;;;5032248;28;20065;-40
2022/06/14 04:08:47;;;;;;;1.02;0.93;;;;;;;;;;5032198;28;20057;-39
2022/06/14 04:11:12;;;;;;;1.92;1.35;;;;;;;;;;5032103;28;20043;-38
2022/06/14 04:13:42;;;;;;;3.15;1.30;;;;;;;;;;5032108;28;20096;-38
2022/06/14 04:16:30;;;;;;;1.35;1.17;;;;;;;;;;5031987;28;20041;-38
2022/06/14 04:19:03;;;;;;;1.52;1.13;;;;;;;;;;5032054;28;20065;-39
2022/06/14 04:21:47;;;;;;;1.40;1.20;;;;;;;;;;5031995;28;20488;-39
2022/06/14 04:24:23;;;;;;;1.20;1.10;;;;;;;;;;5031876;28;20040;-38
2022/06/14 04:27:11;;;;;;;1.50;1.08;;;;;;;;;;5031790;28;20034;-38
2022/06/14 04:29:42;;;;;;;1.50;1.40;;;;;;;;;;5031668;28;20036;-38
2022/06/14 04:32:07;;;;;;;2.78;1.27;;;;;;;;;;5031849;28;20053;-38
2022/06/14 04:34:52;;;;;;;1.15;0.73;;;;;;;;;;5031849;28;20053;-38
2022/06/14 04:37:23;;;;;;;3.13;1.05;;;;;;;;;;5031538;28;20029;-38
2022/06/14 04:40:00;;;;;;;1.05;0.93;;;;;;;;;;5031576;28;20048;-38
2022/06/14 04:42:31;;;;;;;1.60;1.20;;;;;;;;;;5031503;28;20037;-39
2022/06/14 04:45:01;;;;;;;2.88;0.90;;;;;;;;;;5031478;28;20091;-38
2022/06/14 04:47:34;;;;;;;1.20;1.10;;;;;;;;;;5031790;28;20166;-38
2022/06/14 04:50:02;;;;;;;1.92;0.73;;;;;;;;;;5031490;28;20025;-38
2022/06/14 04:52:30;;;;;;;1.45;0.95;;;;;;;;;;5031484;28;20021;-38
2022/06/14 04:54:58;;;;;;;1.55;1.00;;;;;;;;;;5031549;28;20041;-39
2022/06/14 04:57:28;;;;;;;2.75;0.88;;;;;;;;;;5031281;28;20025;-38
2022/06/14 04:59:54;;;;;;;1.35;0.98;;;;;;;;;;5031360;28;20056;-38
2022/06/14 05:02:45;;;;;;;2.78;1.05;;;;;;;;;;5031566;28;20013;-38
2022/06/14 05:05:28;;;;;;;0.90;0.75;;;;;;;;;;5028035;28;20053;-38
2022/06/14 05:07:57;;;;;;;2.83;1.20;;;;;;;;;;5031290;28;20554;-38
2022/06/14 05:10:25;;;;;;;2.60;0.90;;;;;;;;;;5031362;28;20027;-38
2022/06/14 05:12:56;;;;;;;1.33;1.10;;;;;;;;;;5031316;28;20033;-38
2022/06/14 05:15:22;;;;;;;1.77;0.80;;;;;;;;;;5013457;28;20041;-38
2022/06/14 05:17:53;;;;;;;3.33;1.35;;;;;;;;;;5031504;28;20083;-38
2022/06/14 05:20:23;;;;;;;2.15;1.13;;;;;;;;;;5031081;28;20489;-38
2022/06/14 05:22:59;;;;;;;1.48;0.70;;;;;;;;;;5031457;28;20434;-38
2022/06/14 05:25:29;;;;;;;1.05;0.85;;;;;;;;;;5030945;28;20036;-38
2022/06/14 05:28:02;;;;;;;0.88;0.80;;;;;;;;;;5031375;28;20385;-38
2022/06/14 05:30:33;;;;;;;0.88;0.82;;;;;;;;;;5030991;28;20486;-38
2022/06/14 05:32:58;;;;;;;1.45;0.95;;;;;;;;;;5031279;28;20036;-38
2022/06/14 05:35:45;;;;;;;5.30;1.20;;;;;;;;;;5030985;28;20096;-38
2022/06/14 05:38:14;;;;;;;2.28;1.13;;;;;;;;;;5031236;28;20072;-38
2022/06/14 05:40:48;;;;;;;1.05;0.80;;;;;;;;;;5030789;28;20030;-38
2022/06/14 05:43:24;;;;;;;1.60;0.90;;;;;;;;;;5030915;28;20402;-38
2022/06/14 05:45:51;;;;;;;1.02;0.80;;;;;;;;;;5030978;28;20033;-38
2022/06/14 05:48:23;;;;;;;4.75;0.85;;;;;;;;;;5031016;28;20033;-38
2022/06/14 05:50:50;;;;;;;2.05;0.85;;;;;;;;;;5013368;28;20036;-38
2022/06/14 05:53:19;;;;;;;2.05;0.73;;;;;;;;;;5030991;28;20096;-38
2022/06/14 05:56:11;;;;;;;1.48;0.85;;;;;;;;;;5030859;28;20080;-39
2022/06/14 05:58:55;;;;;;;1.80;0.95;;;;;;;;;;5034676;28;20029;-38
2022/06/14 06:01:26;;;;;;;1.00;0.60;;;;;;;;;;5034491;28;20033;-37
2022/06/14 06:03:54;;;;;;;2.30;0.82;;;;;;;;;;5034252;28;20059;-38
2022/06/14 06:06:42;;;;;;;1.67;1.35;;;;;;;;;;5034486;28;20061;-38
2022/06/14 06:09:14;;;;;;;1.33;0.80;;;;;;;;;;5034400;28;20048;-38
2022/06/14 06:11:43;;;;;;;1.08;0.93;;;;;;;;;;5034561;28;20055;-37
2022/06/14 06:14:16;;;;;;;1.00;0.70;;;;;;;;;;5034624;28;20419;-38
2022/06/14 06:19:39;;;;;;;2.22;1.00;;;;;;;;;;5034103;28;20037;-38
2022/06/14 06:22:07;;;;;;;1.50;0.65;;;;;;;;;;5011001;28;20042;-38
2022/06/14 06:24:45;;;;;;;1.65;0.80;;;;;;;;;;5016504;28;20072;-38
2022/06/14 06:27:12;;;;;;;2.17;1.30;;;;;;;;;;5034435;28;20037;-38
2022/06/14 06:29:52;;;;;;;0.70;0.63;;;;;;;;;;5034066;28;20017;-38
2022/06/14 06:32:18;;;;;;;0.90;0.90;;;;;;;;;;5033997;28;20037;-39
2022/06/14 06:34:44;;;;;;;8.35;1.15;;;;;;;;;;5034029;28;20067;-38
2022/06/14 06:37:13;;;;;;;1.17;0.50;;;;;;;;;;5033868;28;20395;-38
2022/06/14 06:39:56;;;;;;;1.20;0.85;;;;;;;;;;5034112;28;20456;-37
2022/06/14 06:42:29;;;;;;;2.13;1.23;;;;;;;;;;5033734;28;20038;-38
2022/06/14 06:44:55;;;;;;;;;;;;;;;;;;5034434;28;20033;-38
2022/06/14 06:47:23;;;;;;;2.15;0.90;;;;;;;;;;5033734;28;20601;-39
2022/06/14 06:49:49;;;;;;;2.03;0.88;;;;;;;;;;5033644;28;20384;-38
2022/06/14 06:52:16;;;;;;;2.35;1.20;;;;;;;;;;5016111;28;20048;-38
2022/06/14 06:54:49;;;;;;;2.13;0.70;;;;;;;;;;5033759;28;20136;-38
2022/06/14 06:57:17;;;;;;;0.60;0.60;;;;;;;;;;5033530;28;20071;-38
2022/06/14 06:59:45;;;;;;;2.67;0.80;;;;;;;;;;5033465;28;20125;-38
2022/06/14 07:02:31;;;;;;;1.65;0.77;;;;;;;;;;5033383;28;20032;-38
2022/06/14 07:05:03;;;;;;;1.80;1.33;;;;;;;;;;5033334;28;20073;-38
2022/06/14 07:07:44;;;;;;;0.88;0.80;;;;;;;;;;5033053;28;20069;-37
2022/06/14 07:10:18;;;;;;;1.38;0.70;;;;;;;;;;5033316;28;20034;-38
2022/06/14 07:12:44;;;;;;;0.98;0.63;;;;;;;;;;5015470;28;20033;-38
2022/06/14 07:15:19;;;;;;;4.68;1.17;;;;;;;;;;5033236;28;20491;-38
2022/06/14 07:17:45;;;;;;;3.28;0.65;;;;;;;;;;5033231;28;20036;-38
2022/06/14 07:20:14;;;;;;;1.77;0.70;;;;;;;;;;5032916;28;20099;-37
2022/06/14 07:22:39;;;;;;;1.73;0.80;;;;;;;;;;5033085;28;20097;-38
2022/06/14 07:25:08;;;;;;;1.80;0.73;;;;;;;;;;5015277;28;20109;-38
2022/06/14 07:27:36;;;;;;;4.97;0.90;;;;;;;;;;5033214;28;20087;-38
2022/06/14 07:30:06;;;;;;;3.22;0.80;;;;;;;;;;5032821;28;20471;-37
2022/06/14 07:32:35;;;;;;;1.73;1.02;;;;;;;;;;5033053;28;20036;-37
2022/06/14 07:35:01;;;;;;;0.35;0.30;;;;;;;;;;5032791;28;20018;-38
2022/06/14 07:37:39;;;;;;;1.10;0.80;;;;;;;;;;5033006;28;20091;-37
2022/06/14 07:40:08;;;;;;;2.10;0.93;;;;;;;;;;5032645;28;20068;-38
2022/06/14 07:42:41;;;;;;;4.43;0.95;;;;;;;;;;5032717;28;20032;-38
2022/06/14 07:45:06;;;;;;;;;;;;;;;;;;5033105;28;20037;-38
2022/06/14 07:47:35;;;;;;;1.23;0.75;;;;;;;;;;5032616;28;19919;-38
2022/06/14 07:50:07;;;;;;;0.85;0.68;;;;;;;;;;5032456;28;20080;-38
2022/06/14 07:52:43;;;;;;;0.73;0.73;;;;;;;;;;5032831;28;20036;-39
2022/06/14 07:55:15;;;;;;;3.55;1.30;;;;;;;;;;5032402;28;20025;-38
2022/06/14 07:57:44;;;;;;;1.17;0.70;;;;;;;;;;5032705;28;20517;-38
2022/06/14 08:03:11;;;;;;;0.80;0.68;;;;;;;;;;5032708;28;20052;-38
2022/06/14 08:05:38;;;;;;;1.08;0.75;;;;;;;;;;5032212;28;20136;-37
2022/06/14 08:08:06;;;;;;;1.63;0.85;;;;;;;;;;5032420;28;20464;-38
2022/06/14 08:10:37;;;;;;;2.03;0.95;;;;;;;;;;5032107;28;20044;-38
2022/06/14 08:13:10;;;;;;;2.30;0.80;;;;;;;;;;5032155;28;20037;-38
2022/06/14 08:15:37;;;;;;;1.88;0.80;;;;;;;;;;5032408;28;20030;-38
2022/06/14 08:18:04;;;;;;;0.98;0.70;;;;;;;;;;5032105;28;20033;-38
2022/06/14 08:20:45;;;;;;;1.45;1.02;;;;;;;;;;5031217;28;20488;-38
2022/06/14 08:23:15;;;;;;;1.23;1.00;;;;;;;;;;5032163;28;20029;-37
2022/06/14 08:25:44;;;;;;;1.13;0.80;;;;;;;;;;5031864;28;20472;-38
2022/06/14 08:28:09;;;;;;;1.40;0.55;;;;;;;;;;5032053;28;20108;-38
2022/06/14 08:30:38;;;;;;;1.13;0.75;;;;;;;;;;5031744;28;20562;-37
2022/06/14 08:33:08;;;;;;;2.45;0.95;;;;;;;;;;5031887;28;20534;-39
2022/06/14 08:35:40;;;;;;;1.23;0.85;;;;;;;;;;5031828;28;20028;-38
2022/06/14 08:38:11;;;;;;;1.58;1.02;;;;;;;;;;5031488;28;20036;-37
2022/06/14 08:40:48;;;;;;;2.92;1.10;;;;;;;;;;5031917;28;20077;-37
2022/06/14 08:43:19;;;;;;;0.88;0.70;;;;;;;;;;5031891;28;20124;-37
2022/06/14 08:46:04;;;;;;;4.45;1.00;;;;;;;;;;5031660;28;20026;-38
2022/06/14 08:48:43;;;;;;;1.67;0.90;;;;;;;;;;5031780;28;20064;-38
2022/06/14 08:51:10;;;;;;;1.98;0.75;;;;;;;;;;5031452;28;20022;-38
2022/06/14 08:53:35;;;;;;;4.60;0.93;;;;;;;;;;5031748;28;20368;-38
2022/06/14 08:56:10;;;;;;;2.78;0.80;;;;;;;;;;5031541;28;20022;-38
2022/06/14 08:58:42;;;;;;;1.73;0.80;;;;;;;;;;5031508;28;20029;-38
2022/06/14 09:01:09;;;;;;;4.45;1.33;;;;;;;;;;5031509;28;20399;-38
2022/06/14 09:03:55;;;;;;;1.13;0.80;;;;;;;;;;5031326;28;20025;-37
2022/06/14 09:06:40;;;;;;;1.25;0.75;;;;;;;;;;5030851;28;20069;-38
2022/06/14 09:09:12;;;;;;;1.63;1.50;;;;;;;;;;5020500;28;20041;-38
2022/06/14 09:11:37;;;;;;;1.38;0.88;;;;;;;;;;5031329;28;20033;-38
2022/06/14 09:14:21;;;;;;;1.45;0.88;;;;;;;;;;5031279;28;20040;-38
2022/06/14 09:17:05;;;;;;;2.55;0.75;;;;;;;;;;5031639;28;20021;-38
2022/06/14 09:19:51;;;;;;;2.05;0.65;;;;;;;;;;5031055;28;20038;-37
2022/06/14 09:22:23;;;;;;;0.50;0.45;;;;;;;;;;5030650;28;20312;-38
2022/06/14 09:25:11;;;;;;;2.45;1.10;;;;;;;;;;5031480;28;20029;-38
2022/06/14 09:27:37;;;;;;;5.22;2.17;;;;;;;;;;5002752;28;20061;-38
2022/06/14 09:30:06;;;;;;;1.45;0.70;;;;;;;;;;5029839;28;20460;-38
2022/06/14 09:35:46;;;;;;;1.48;1.05;;;;;;;;;;5035089;28;20034;-38
2022/06/14 09:38:11;;;;;;;2.55;0.90;;;;;;;;;;5034974;28;20037;-38
2022/06/14 09:40:52;;;;;;;5.40;1.20;;;;;;;;;;5034996;28;20025;-38
2022/06/14 09:43:36;;;;;;;1.45;0.70;;;;;;;;;;5034953;28;20159;-38
2022/06/14 09:46:08;;;;;;;1.75;1.08;;;;;;;;;;5034943;28;20033;-38
2022/06/14 09:48:45;;;;;;;4.95;0.77;;;;;;;;;;5034820;28;20053;-38
2022/06/14 09:51:11;;;;;;;3.50;1.45;;;;;;;;;;5034760;28;20101;-39
2022/06/14 09:53:36;;;;;;;1.20;0.90;;;;;;;;;;5035099;28;20108;-38
2022/06/14 09:56:02;;;;;;;5.22;0.90;;;;;;;;;;5034662;28;20430;-38
2022/06/14 09:58:33;;;;;;;2.17;1.15;;;;;;;;;;5034821;28;20029;-38
2022/06/14 10:01:05;;;;;;;1.70;0.90;;;;;;;;;;5034675;28;20045;-38
2022/06/14 10:03:36;;;;;;;1.25;0.85;;;;;;;;;;5034320;28;20064;-38
2022/06/14 10:06:24;;;;;;;1.00;0.70;;;;;;;;;;5034865;28;20433;-38
2022/06/14 10:08:59;;;;;;;1.98;1.05;;;;;;;;;;5034568;28;20039;-38
2022/06/14 10:11:30;;;;;;;2.17;0.93;;;;;;;;;;5034282;28;20057;-39
2022/06/14 10:14:14;;;;;;;1.85;1.15;;;;;;;;;;5034523;28;20091;-38
2022/06/14 10:16:42;;;;;;;1.48;1.02;;;;;;;;;;5034347;28;20049;-38
2022/06/14 10:19:11;;;;;;;1.35;0.95;;;;;;;;;;5034428;28;20047;-38
2022/06/14 10:21:42;;;;;;;0.93;0.80;;;;;;;;;;5034229;28;20121;-38
2022/06/14 10:24:14;;;;;;;1.63;0.90;;;;;;;;;;5034166;28;20057;-37
2022/06/14 10:29:32;;;;;;;4.45;1.63;;;;;;;;;;5034073;28;20032;-37
2022/06/14 10:32:16;;;;;;;1.25;1.08;;;;;;;;;;5034041;28;20764;-38
2022/06/14 10:35:00;;;;;;;1.38;0.82;;;;;;;;;;5034348;28;20025;-38
2022/06/14 10:37:44;;;;;;;3.28;0.98;;;;;;;;;;5034038;28;20057;-38
2022/06/14 10:40:23;;;;;;;1.45;1.00;;;;;;;;;;5033980;28;20098;-38
2022/06/14 10:43:00;;;;;;;3.78;1.10;;;;;;;;;;5033509;28;20022;-38
2022/06/14 10:45:41;;;;;;;2.17;1.17;;;;;;;;;;5033836;28;20032;-38
2022/06/14 10:48:17;;;;;;;1.00;0.90;;;;;;;;;;5033796;28;20396;-38
2022/06/14 10:50:42;;;;;;;2.15;0.98;;;;;;;;;;5034012;28;20033;-38
2022/06/14 10:53:09;;;;;;;1.73;1.00;;;;;;;;;;5033766;28;20590;-38
2022/06/14 10:55:50;;;;;;;1.23;0.68;;;;;;;;;;5033730;28;20056;-38
2022/06/14 10:58:15;;;;;;;3.47;1.15;;;;;;;;;;5033389;28;20578;-38
2022/06/14 11:00:44;;;;;;;1.63;0.90;;;;;;;;;;5033481;28;20127;-39
2022/06/14 11:03:38;;;;;;;1.23;1.00;;;;;;;;;;5015691;28;20549;-38
2022/06/14 11:06:04;;;;;;;1.83;1.00;;;;;;;;;;5007126;28;20057;-38
2022/06/14 11:08:29;;;;;;;1.55;0.93;;;;;;;;;;5015529;28;20552;-38
2022/06/14 11:10:58;;;;;;;0.85;0.77;;;;;;;;;;5015765;28;20033;-38
2022/06/14 11:13:26;;;;;;;2.15;0.85;;;;;;;;;;5033357;28;20068;-38
2022/06/14 11:16:01;;;;;;;0.52;0.52;;;;;;;;;;5033300;28;20044;-38
2022/06/14 11:18:33;;;;;;;1.05;0.95;;;;;;;;;;5031850;28;20091;-38
2022/06/14 11:21:01;;;;;;;0.70;0.70;;;;;;;;;;5015342;28;20041;-38
2022/06/14 11:23:32;;;;;;;0.90;0.75;;;;;;;;;;5033094;28;20096;-38
2022/06/14 11:26:02;;;;;;;1.50;0.80;;;;;;;;;;5015529;28;20431;-38
2022/06/14 11:28:30;;;;;;;0.68;0.50;;;;;;;;;;5032925;28;20472;-38
2022/06/14 11:31:14;;;;;;;1.17;0.75;;;;;;;;;;5033070;28;20035;-38
2022/06/14 11:33:48;;;;;;;1.08;0.80;;;;;;;;;;5031705;28;20148;-38
2022/06/14 11:36:29;;;;;;;1.08;0.60;;;;;;;;;;5032827;28;20021;-38
2022/06/14 11:38:55;;;;;;;2.08;1.00;;;;;;;;;;5032826;28;20047;-39
2022/06/14 11:41:22;;;;;;;1.17;0.73;;;;;;;;;;4998661;28;20037;-38
2022/06/14 11:43:53;;;;;;;4.70;0.57;;;;;;;;;;5033036;28;20391;-38
2022/06/14 11:46:18;;;;;;;1.52;1.02;;;;;;;;;;5032714;28;20029;-38
2022/06/14 11:49:10;;;;;;;1.60;0.85;;;;;;;;;;5032644;28;20052;-38
2022/06/14 11:51:38;;;;;;;1.17;0.80;;;;;;;;;;5009473;28;20480;-38
2022/06/14 11:54:21;;;;;;;1.33;0.80;;;;;;;;;;5031839;28;20056;-38
2022/06/14 11:56:56;;;;;;;1.95;0.73;;;;;;;;;;5032491;28;20587;-38
2022/06/14 11:59:39;;;;;;;1.52;0.70;;;;;;;;;;5032278;28;20072;-38
2022/06/14 12:02:31;;;;;;;0.70;0.70;;;;;;;;;;5117973;22;20144;-37
2022/06/14 12:05:16;;;;;;;0.63;0.60;;;;;;;;;;5032516;28;20308;-38
2022/06/14 12:07:45;;;;;;;0.60;0.60;;;;;;;;;;5014736;28;20367;-38
2022/06/14 12:10:29;;;;;;;4.97;1.60;;;;;;;;;;5032299;28;20025;-38
2022/06/14 12:12:54;;;;;;;1.27;1.08;;;;;;;;;;5032276;28;20061;-39
2022/06/14 12:15:43;;;;;;;0.82;0.82;;;;;;;;;;5068846;28;20738;-39
2022/06/14 12:18:10;;;;;;;2.10;0.90;;;;;;;;;;5067527;28;20043;-39
2022/06/14 12:20:42;;;;;;;3.95;0.63;;;;;;;;;;5069102;28;20457;-39
2022/06/14 12:23:10;;;;;;;0.85;0.70;;;;;;;;;;5068880;28;20036;-39
2022/06/14 12:28:51;;;;;;;1.52;1.02;;;;;;;;;;5062908;28;20052;-39
2022/06/14 12:31:23;;;;;;;2.72;0.75;;;;;;;;;;5068632;28;20071;-40
2022/06/14 12:33:51;;;;;;;0.77;0.70;;;;;;;;;;5068470;28;20118;-39
2022/06/14 12:36:25;;;;;;;6.18;1.30;;;;;;;;;;5068525;28;20553;-39
2022/06/14 12:38:53;;;;;;;1.80;1.25;;;;;;;;;;5068382;28;20158;-39
2022/06/14 12:41:24;;;;;;;5.47;1.10;;;;;;;;;;5068384;28;20028;-39
2022/06/14 12:44:10;;;;;;;1.00;0.95;;;;;;;;;;5067009;28;20048;-40
2022/06/14 12:46:39;;;;;;;1.98;1.27;;;;;;;;;;5068278;28;20518;-40
2022/06/14 12:49:17;;;;;;;5.65;1.10;;;;;;;;;;5068108;28;20462;-40
2022/06/14 12:51:55;;;;;;;1.45;0.80;;;;;;;;;;5068340;28;20437;-39
2022/06/14 12:54:29;;;;;;;1.10;1.00;;;;;;;;;;5068036;28;20036;-39
2022/06/14 12:57:03;;;;;;;1.23;1.00;;;;;;;;;;5067944;28;20020;-39
2022/06/14 12:59:34;;;;;;;3.28;0.98;;;;;;;;;;5067994;28;20040;-39
2022/06/14 13:02:10;;;;;;;1.70;0.68;;;;;;;;;;5067692;28;20032;-39
2022/06/14 13:04:39;;;;;;;1.05;0.95;;;;;;;;;;5067990;28;20036;-40
2022/06/14 13:07:16;;;;;;;1.27;0.90;;;;;;;;;;5067690;28;20029;-40
2022/06/14 13:09:42;;;;;;;1.33;0.90;;;;;;;;;;5067726;28;20028;-40
2022/06/14 13:12:26;;;;;;;5.15;0.95;;;;;;;;;;5066337;28;20028;-40
2022/06/14 13:15:09;;;;;;;1.02;0.85;;;;;;;;;;5067399;28;20080;-40
2022/06/14 13:17:58;;;;;;;3.63;0.93;;;;;;;;;;5067614;28;20560;-39
2022/06/14 13:20:28;;;;;;;1.02;0.93;;;;;;;;;;5066322;28;20443;-40
2022/06/14 13:23:32;;;;;;;1.73;1.20;;;;;;;;;;5067328;28;20025;-40
2022/06/14 13:26:11;;;;;;;1.55;1.08;;;;;;;;;;5056405;28;20037;-39
2022/06/14 13:28:39;;;;;;;1.42;1.08;;;;;;;;;;5051739;28;20040;-39
2022/06/14 13:31:05;;;;;;;0.68;0.68;;;;;;;;;;5052930;28;20036;-40
2022/06/14 13:33:31;;;;;;;2.35;1.23;;;;;;;;;;5054024;28;20029;-40
2022/06/14 13:36:22;;;;;;;1.98;1.15;;;;;;;;;;5054067;28;20016;-40
2022/06/14 13:39:07;;;;;;;1.75;0.80;;;;;;;;;;5053733;28;20068;-40
2022/06/14 13:42:00;;;;;;;1.58;1.45;;;;;;;;;;5053890;28;20033;-40
2022/06/14 13:44:31;;;;;;;1.20;1.10;;;;;;;;;;5054295;28;20077;-39
2022/06/14 13:47:02;;;;;;;2.42;0.95;;;;;;;;;;5054083;28;20036;-40
2022/06/14 13:49:31;;;;;;;1.15;0.90;;;;;;;;;;5053733;28;20025;-41
2022/06/14 13:52:19;;;;;;;4.70;1.20;;;;;;;;;;5053647;28;20104;-40
2022/06/14 13:54:44;;;;;;;2.15;0.93;;;;;;;;;;5053868;28;20040;-40
2022/06/14 13:57:30;;;;;;;1.48;0.85;;;;;;;;;;5053587;28;20466;-39
2022/06/14 14:00:00;;;;;;;1.90;1.40;;;;;;;;;;5053522;28;20040;-40
2022/06/14 14:02:26;;;;;;;1.90;1.42;;;;;;;;;;5053493;28;20028;-40
2022/06/14 14:04:55;;;;;;;1.50;1.08;;;;;;;;;;5053736;28;20032;-40
2022/06/14 14:07:27;;;;;;;0.57;0.55;;;;;;;;;;5053556;28;20021;-40
2022/06/14 14:10:12;;;;;;;2.20;0.90;;;;;;;;;;5053352;28;20044;-40
2022/06/14 14:12:40;;;;;;;1.70;1.08;;;;;;;;;;5053381;28;20040;-39
2022/06/14 14:15:24;;;;;;;1.10;1.00;;;;;;;;;;5053009;28;20063;-39
2022/06/14 14:18:09;;;;;;;2.40;0.82;;;;;;;;;;5053304;28;20021;-40
2022/06/14 14:20:43;;;;;;;2.05;1.20;;;;;;;;;;5053342;28;20044;-40
2022/06/14 14:23:42;;;;;;;0.95;0.70;;;;;;;;;;5051884;28;20025;-40
2022/06/14 14:26:13;;;;;;;1.17;1.08;;;;;;;;;;5051681;28;20056;-40
2022/06/14 14:28:44;;;;;;;3.60;0.80;;;;;;;;;;5053719;28;20060;-40
2022/06/14 14:31:12;;;;;;;0.93;0.75;;;;;;;;;;5053211;28;20078;-39
2022/06/14 14:33:48;;;;;;;2.28;0.80;;;;;;;;;;5052890;28;20111;-40
2022/06/14 14:36:25;;;;;;;1.80;1.05;;;;;;;;;;5052991;28;20029;-39
2022/06/14 14:38:54;;;;;;;1.35;0.95;;;;;;;;;;5052134;28;20111;-40
2022/06/14 14:41:40;;;;;;;1.67;1.00;;;;;;;;;;5052872;28;20103;-40
2022/06/14 14:44:08;;;;;;;2.67;0.88;;;;;;;;;;5053053;28;20029;-39
2022/06/14 14:46:36;;;;;;;0.60;0.60;;;;;;;;;;5052631;28;20017;-39
2022/06/14 14:49:05;;;;;;;2.47;1.13;;;;;;;;;;5052661;28;20322;-40
2022/06/14 14:51:31;;;;;;;1.83;1.00;;;;;;;;;;5052559;28;20053;-39
2022/06/14 14:54:18;;;;;;;1.83;0.90;;;;;;;;;;5052437;28;20064;-39
2022/06/14 14:57:03;;;;;;;1.48;1.10;;;;;;;;;;5051604;28;20382;-40
2022/06/14 14:59:31;;;;;;;1.50;0.82;;;;;;;;;;5052430;28;20029;-39
2022/06/14 15:07:40;;;;;;;1.70;0.90;;;;;;;;;;5052266;28;20471;-39
2022/06/14 15:10:17;;;;;;;1.17;0.90;;;;;;;;;;5052194;28;20024;-40
2022/06/14 15:13:03;;;;;;;1.55;0.90;;;;;;;;;;5052179;28;20029;-40
2022/06/14 15:15:33;;;;;;;1.38;0.80;;;;;;;;;;5051979;28;20080;-40
2022/06/14 15:20:53;;;;;;;1.38;1.00;;;;;;;;;;5052051;28;20115;-40
2022/06/14 15:23:36;;;;;;;1.20;0.98;;;;;;;;;;5052098;28;20082;-40
2022/06/14 15:26:02;;;;;;;1.35;1.23;;;;;;;;;;5052133;28;20024;-40
2022/06/14 15:29:00;;;;;;;4.78;1.23;;;;;;;;;;5051885;28;20425;-40
2022/06/14 15:31:25;;;;;;;2.38;0.82;;;;;;;;;;5050545;28;20472;-39
2022/06/14 15:33:55;;;;;;;1.88;0.80;;;;;;;;;;5051818;28;20052;-40
2022/06/14 15:36:32;;;;;;;2.30;1.23;;;;;;;;;;5050535;28;20025;-40
2022/06/14 15:39:16;;;;;;;0.75;0.75;;;;;;;;;;5051708;28;20025;-40
2022/06/14 15:41:42;;;;;;;2.00;0.90;;;;;;;;;;5051995;28;20368;-40
2022/06/14 15:44:14;;;;;;;0.73;0.73;;;;;;;;;;5050377;28;20070;-40
2022/06/14 15:46:48;;;;;;;2.73;1.27;;;;;;;;;;5051762;28;20036;-40